createdAt,value
2019-05-29T00:01:19.854Z,97112.37
2019-05-29T00:03:45.061Z,97113.27
2019-05-29T00:06:14.336Z,97119.14
2019-05-29T00:08:42.841Z,97118.75
2019-05-29T00:11:12.240Z,97121.59
2019-05-29T00:13:40.618Z,97117.23
2019-05-29T00:16:09.006Z,97124.19
2019-05-29T00:18:38.471Z,97122.89
2019-05-29T00:21:06.859Z,97126.92
2019-05-29T00:23:35.249Z,97131.34
2019-05-29T00:26:03.703Z,97129.29
2019-05-29T00:28:32.090Z,97125.00
2019-05-29T00:31:00.476Z,97111.50
2019-05-29T00:33:28.868Z,97131.23
2019-05-29T00:35:57.250Z,97110.56
2019-05-29T00:38:25.672Z,97127.87
2019-05-29T00:40:54.059Z,97128.71
2019-05-29T00:43:22.461Z,97124.06
2019-05-29T00:45:50.924Z,97131.01
2019-05-29T00:48:19.314Z,97129.86
2019-05-29T00:50:47.803Z,97134.64
2019-05-29T00:53:16.443Z,97138.20
2019-05-29T00:55:44.833Z,97139.60
2019-05-29T00:58:13.228Z,97138.80
2019-05-29T01:00:41.642Z,97145.82
2019-05-29T01:03:10.025Z,97142.91
2019-05-29T01:05:38.423Z,97146.72
2019-05-29T01:08:06.800Z,97149.70
2019-05-29T01:10:35.433Z,97148.81
2019-05-29T01:13:03.897Z,97152.70
2019-05-29T01:15:32.287Z,97145.82
2019-05-29T01:18:00.676Z,97153.59
2019-05-29T01:20:29.061Z,97153.73
2019-05-29T01:22:57.522Z,97151.67
2019-05-29T01:25:25.972Z,97157.29
2019-05-29T01:27:54.364Z,97155.38
2019-05-29T01:30:23.431Z,97161.02
2019-05-29T01:32:51.880Z,97173.17
2019-05-29T01:35:20.352Z,97175.80
2019-05-29T01:37:48.736Z,97178.92
2019-05-29T01:40:23.123Z,97173.88
2019-05-29T01:42:49.882Z,97183.45
2019-05-29T01:45:17.568Z,97178.43
2019-05-29T01:47:45.957Z,97184.91
2019-05-29T01:50:15.556Z,97178.86
2019-05-29T01:52:44.016Z,97181.38
2019-05-29T01:55:12.506Z,97187.99
2019-05-29T01:57:40.915Z,97185.03
2019-05-29T02:00:10.101Z,97191.17
2019-05-29T02:02:38.590Z,97196.95
2019-05-29T02:05:07.315Z,97198.74
2019-05-29T02:07:35.822Z,97200.50
2019-05-29T02:10:06.728Z,97207.56
2019-05-29T02:12:35.156Z,97204.18
2019-05-29T02:15:04.994Z,97216.89
2019-05-29T02:17:33.397Z,97218.18
2019-05-29T02:20:01.813Z,97216.55
2019-05-29T02:22:30.207Z,97218.77
2019-05-29T02:24:58.620Z,97222.72
2019-05-29T02:27:27.738Z,97225.25
2019-05-29T02:29:56.331Z,97222.89
2019-05-29T02:32:25.557Z,97226.84
2019-05-29T02:34:54.070Z,97231.12
2019-05-29T02:37:22.454Z,97235.91
2019-05-29T02:39:50.871Z,97237.72
2019-05-29T02:42:20.865Z,97239.42
2019-05-29T02:44:49.504Z,97237.13
2019-05-29T02:47:19.279Z,97241.23
2019-05-29T02:49:47.930Z,97251.05
2019-05-29T02:52:16.319Z,97247.05
2019-05-29T02:54:44.711Z,97250.40
2019-05-29T02:57:13.183Z,97253.12
2019-05-29T02:59:41.575Z,97248.47
2019-05-29T03:02:09.967Z,97255.19
2019-05-29T03:04:38.374Z,97261.02
2019-05-29T03:07:07.016Z,97258.22
2019-05-29T03:09:35.394Z,97267.47
2019-05-29T03:12:03.848Z,97270.05
2019-05-29T03:14:34.333Z,97268.27
2019-05-29T03:17:02.353Z,97268.64
2019-05-29T03:19:32.370Z,97272.40
2019-05-29T03:22:00.985Z,97269.94
2019-05-29T03:24:30.818Z,97273.94
2019-05-29T03:26:59.677Z,97274.28
2019-05-29T03:29:29.654Z,97274.59
2019-05-29T03:31:58.398Z,97282.88
2019-05-29T03:34:31.064Z,97280.81
2019-05-29T03:36:57.040Z,97287.65
2019-05-29T03:39:26.397Z,97290.64
2019-05-29T03:41:54.843Z,97285.86
2019-05-29T03:44:23.249Z,97292.39
2019-05-29T03:46:51.647Z,97289.75
2019-05-29T03:49:20.032Z,97292.70
2019-05-29T03:51:48.428Z,97305.64
2019-05-29T03:54:16.896Z,97299.30
2019-05-29T03:56:45.344Z,97307.40
2019-05-29T03:59:13.760Z,97305.52
2019-05-29T04:01:42.139Z,97316.16
2019-05-29T04:04:10.526Z,97317.82
2019-05-29T04:06:38.908Z,97320.16
2019-05-29T04:09:07.369Z,97321.75
2019-05-29T04:11:37.921Z,97323.57
2019-05-29T04:14:06.721Z,97332.45
2019-05-29T04:16:54.008Z,97329.98
2019-05-29T04:19:06.538Z,97333.87
2019-05-29T04:21:38.436Z,97335.69
2019-05-29T04:24:06.972Z,97340.46
2019-05-29T04:26:38.443Z,97345.76
2019-05-29T04:29:06.940Z,97339.87
2019-05-29T04:31:36.526Z,97346.80
2019-05-29T04:34:05.448Z,97346.92
2019-05-29T04:36:34.867Z,97342.52
2019-05-29T04:39:04.907Z,97352.81
2019-05-29T04:41:34.657Z,97359.10
2019-05-29T04:44:03.149Z,97359.50
2019-05-29T04:46:31.770Z,97374.23
2019-05-29T04:49:00.195Z,97371.21
2019-05-29T04:51:29.079Z,97373.39
2019-05-29T04:53:57.609Z,97375.80
2019-05-29T04:56:25.998Z,97380.28
2019-05-29T04:58:54.413Z,97378.09
2019-05-29T05:01:22.821Z,97385.92
2019-05-29T05:03:51.272Z,97395.88
2019-05-29T05:06:19.758Z,97401.88
2019-05-29T05:08:48.279Z,97401.34
2019-05-29T05:11:17.015Z,97402.11
2019-05-29T05:13:46.089Z,97406.28
2019-05-29T05:16:14.550Z,97406.93
2019-05-29T05:18:42.956Z,97412.18
2019-05-29T05:21:11.418Z,97415.75
2019-05-29T05:23:40.509Z,97418.06
2019-05-29T05:26:09.212Z,97427.53
2019-05-29T05:28:38.614Z,97432.77
2019-05-29T05:31:06.988Z,97433.95
2019-05-29T05:33:36.632Z,97434.23
2019-05-29T05:36:05.255Z,97434.61
2019-05-29T05:38:34.661Z,97439.06
2019-05-29T05:41:03.228Z,97434.98
2019-05-29T05:43:32.820Z,97451.00
2019-05-29T05:46:01.441Z,97455.20
2019-05-29T05:48:30.892Z,97457.67
2019-05-29T05:50:59.370Z,97462.85
2019-05-29T05:53:27.909Z,97462.97
2019-05-29T05:55:56.326Z,97461.91
2019-05-29T05:58:24.730Z,97464.44
2019-05-29T06:00:53.121Z,97466.91
2019-05-29T06:03:21.581Z,97466.98
2019-05-29T06:05:50.016Z,97473.22
2019-05-29T06:08:18.512Z,97479.14
2019-05-29T06:10:46.927Z,97481.98
2019-05-29T06:13:15.330Z,97487.80
2019-05-29T06:15:43.840Z,97491.83
2019-05-29T06:18:21.109Z,97492.66
2019-05-29T06:20:43.229Z,97494.43
2019-05-29T06:23:11.670Z,97499.66
2019-05-29T06:25:40.773Z,97500.09
2019-05-29T06:28:10.315Z,97496.04
2019-05-29T06:30:40.686Z,97491.56
2019-05-29T06:33:08.899Z,97495.13
2019-05-29T06:35:37.625Z,97499.83
2019-05-29T06:38:06.101Z,97506.61
2019-05-29T06:40:38.321Z,97510.61
2019-05-29T06:43:11.256Z,97510.95
2019-05-29T06:45:38.372Z,97513.02
2019-05-29T06:48:08.697Z,97516.56
2019-05-29T06:50:37.481Z,97515.27
2019-05-29T06:53:05.949Z,97517.98
2019-05-29T06:55:35.667Z,97516.66
2019-05-29T06:58:04.349Z,97517.69
2019-05-29T07:00:35.518Z,97522.06
2019-05-29T07:03:02.958Z,97529.09
2019-05-29T07:05:31.386Z,97527.78
2019-05-29T07:08:13.313Z,97525.95
2019-05-29T07:10:29.976Z,97523.73
2019-05-29T07:12:58.374Z,97536.13
2019-05-29T07:15:26.804Z,97547.27
2019-05-29T07:17:55.189Z,97538.27
2019-05-29T07:20:23.645Z,97534.26
2019-05-29T07:22:52.061Z,97546.52
2019-05-29T07:25:20.430Z,97547.34
2019-05-29T07:27:48.825Z,97544.86
2019-05-29T07:30:18.758Z,97550.47
2019-05-29T07:32:56.654Z,97558.00
2019-05-29T07:35:17.340Z,97554.23
2019-05-29T07:37:46.029Z,97553.99
2019-05-29T07:40:14.641Z,97553.87
2019-05-29T07:42:49.751Z,97560.23
2019-05-29T07:45:13.869Z,97553.38
2019-05-29T07:47:42.745Z,97561.07
2019-05-29T07:50:11.680Z,97566.34
2019-05-29T07:52:40.855Z,97568.75
2019-05-29T07:55:09.949Z,97576.08
2019-05-29T07:57:38.860Z,97577.62
2019-05-29T08:00:08.459Z,97582.67
2019-05-29T08:02:36.855Z,97589.28
2019-05-29T08:05:06.708Z,97586.32
2019-05-29T08:07:35.101Z,97588.30
2019-05-29T08:10:05.473Z,97589.16
2019-05-29T08:12:33.873Z,97598.64
2019-05-29T08:15:02.344Z,97601.35
2019-05-29T08:17:30.729Z,97609.01
2019-05-29T08:20:06.568Z,97608.89
2019-05-29T08:22:34.120Z,97613.03
2019-05-29T08:24:59.453Z,97618.90
2019-05-29T08:27:27.845Z,97615.94
2019-05-29T08:29:56.316Z,97619.24
2019-05-29T08:32:24.757Z,97637.22
2019-05-29T08:34:53.124Z,97633.27
2019-05-29T08:37:21.516Z,97624.77
2019-05-29T08:39:51.580Z,97640.98
2019-05-29T08:42:23.304Z,97641.51
2019-05-29T08:44:50.258Z,97648.77
2019-05-29T08:47:18.926Z,97649.66
2019-05-29T08:49:50.874Z,97649.53
2019-05-29T08:52:17.504Z,97661.78
2019-05-29T08:54:46.067Z,97664.38
2019-05-29T08:57:14.412Z,97657.43
2019-05-29T08:59:44.328Z,97664.69
2019-05-29T09:02:12.806Z,97662.98
2019-05-29T09:04:42.916Z,97662.64
2019-05-29T09:07:11.349Z,97666.64
2019-05-29T09:09:39.737Z,97677.36
2019-05-29T09:12:08.118Z,97673.66
2019-05-29T09:14:36.523Z,97679.59
2019-05-29T09:17:04.965Z,97687.69
2019-05-29T09:19:33.324Z,97683.55
2019-05-29T09:22:01.711Z,97686.75
2019-05-29T09:24:30.105Z,97689.50
2019-05-29T09:26:58.497Z,97692.91
2019-05-29T09:29:26.876Z,97691.72
2019-05-29T09:31:55.265Z,97699.87
2019-05-29T09:34:24.373Z,97706.36
2019-05-29T09:36:55.759Z,97723.22
2019-05-29T09:39:23.040Z,97721.63
2019-05-29T09:41:51.437Z,97724.05
2019-05-29T09:44:36.089Z,97728.23
2019-05-29T09:46:49.932Z,97730.94
2019-05-29T09:49:18.558Z,97729.75
2019-05-29T09:51:48.484Z,97743.80
2019-05-29T09:54:16.919Z,97733.88
2019-05-29T09:56:45.335Z,97737.30
2019-05-29T09:59:13.723Z,97742.70
2019-05-29T10:01:42.102Z,97750.82
2019-05-29T10:04:10.494Z,97746.88
2019-05-29T10:06:38.867Z,97741.47
2019-05-29T10:09:09.197Z,97741.16
2019-05-29T10:11:37.911Z,97746.89
2019-05-29T10:14:06.558Z,97747.33
2019-05-29T10:16:34.954Z,97749.03
2019-05-29T10:19:03.838Z,97753.47
2019-05-29T10:21:41.533Z,97756.01
2019-05-29T10:24:04.134Z,97761.78
2019-05-29T10:26:32.760Z,97766.13
2019-05-29T10:29:08.326Z,97769.77
2019-05-29T10:31:31.240Z,97768.57
2019-05-29T10:33:59.704Z,97769.46
2019-05-29T10:36:28.290Z,97774.58
2019-05-29T10:38:56.622Z,97778.06
2019-05-29T10:41:25.008Z,97777.95
2019-05-29T10:43:53.462Z,97789.39
2019-05-29T10:46:21.783Z,97780.28
2019-05-29T10:48:52.838Z,97783.77
2019-05-29T10:51:20.359Z,97789.85
2019-05-29T10:53:50.355Z,97783.19
2019-05-29T10:56:21.189Z,97782.50
2019-05-29T10:58:55.725Z,97781.26
2019-05-29T11:01:19.087Z,97781.80
2019-05-29T11:03:47.458Z,97785.80
2019-05-29T11:06:15.868Z,97780.69
2019-05-29T11:08:44.250Z,97781.98
2019-05-29T11:11:12.639Z,97785.81
2019-05-29T11:13:41.044Z,97785.75
2019-05-29T11:16:09.428Z,97791.35
2019-05-29T11:18:37.811Z,97792.25
2019-05-29T11:21:06.269Z,97788.92
2019-05-29T11:23:34.658Z,97790.69
2019-05-29T11:26:03.042Z,97787.88
2019-05-29T11:28:31.430Z,97799.44
2019-05-29T11:31:06.128Z,97790.09
2019-05-29T11:33:29.934Z,97797.83
2019-05-29T11:36:10.050Z,97796.00
2019-05-29T11:38:28.523Z,97801.62
2019-05-29T11:41:19.885Z,97797.45
2019-05-29T11:43:27.199Z,97795.70
2019-05-29T11:45:55.582Z,97800.77
2019-05-29T11:48:23.972Z,97809.61
2019-05-29T11:50:52.349Z,97813.63
2019-05-29T11:53:20.736Z,97821.20
2019-05-29T11:55:49.115Z,97816.07
2019-05-29T11:58:30.619Z,97818.38
2019-05-29T12:00:47.688Z,97809.81
2019-05-29T12:03:16.078Z,97821.74
2019-05-29T12:05:44.488Z,97822.50
2019-05-29T12:08:12.885Z,97827.75
2019-05-29T12:10:41.294Z,97827.75
2019-05-29T12:13:09.742Z,97818.32
2019-05-29T12:15:38.127Z,97803.28
2019-05-29T12:18:23.045Z,97821.09
2019-05-29T12:20:37.002Z,97826.28
2019-05-29T12:23:23.779Z,97827.58
2019-05-29T12:25:35.547Z,97833.12
2019-05-29T12:28:04.308Z,97824.27
2019-05-29T12:30:34.337Z,97833.23
2019-05-29T12:33:03.260Z,97834.91
2019-05-29T12:35:31.673Z,97829.12
2019-05-29T12:38:01.394Z,97827.80
2019-05-29T12:40:29.834Z,97820.77
2019-05-29T12:42:59.998Z,97831.84
2019-05-29T12:45:28.327Z,97824.50
2019-05-29T12:47:58.195Z,97820.97
2019-05-29T12:50:27.118Z,97829.11
2019-05-29T12:52:55.775Z,97833.14
2019-05-29T12:55:24.266Z,97836.42
2019-05-29T12:57:53.840Z,97832.98
2019-05-29T13:00:22.339Z,97833.36
2019-05-29T13:02:50.730Z,97830.11
2019-05-29T13:05:20.879Z,97834.38
2019-05-29T13:07:49.544Z,97839.91
2019-05-29T13:10:29.875Z,97840.97
2019-05-29T13:12:48.931Z,97847.67
2019-05-29T13:15:18.027Z,97843.41
2019-05-29T13:17:46.411Z,97847.41
2019-05-29T13:20:21.453Z,97840.66
2019-05-29T13:22:45.459Z,97843.13
2019-05-29T13:25:14.279Z,97845.48
2019-05-29T13:27:42.752Z,97845.39
2019-05-29T13:30:13.475Z,97849.34
2019-05-29T13:32:42.286Z,97847.00
2019-05-29T13:35:12.647Z,97848.42
2019-05-29T13:37:41.033Z,97846.34
2019-05-29T13:40:09.756Z,97841.80
2019-05-29T13:42:38.207Z,97853.25
2019-05-29T13:45:16.893Z,97857.27
2019-05-29T13:47:37.739Z,97850.13
2019-05-29T13:50:11.745Z,97855.72
2019-05-29T13:52:37.278Z,97854.88
2019-05-29T13:55:07.830Z,97854.57
2019-05-29T13:57:39.539Z,97855.19
2019-05-29T14:00:30.203Z,97851.47
2019-05-29T14:02:38.930Z,97854.20
2019-05-29T14:05:08.771Z,97858.72
2019-05-29T14:07:37.395Z,97864.33
2019-05-29T14:10:07.768Z,97860.86
2019-05-29T14:12:37.641Z,97860.42
2019-05-29T14:15:09.991Z,97866.14
2019-05-29T14:17:38.390Z,97869.80
2019-05-29T14:20:09.115Z,97869.27
2019-05-29T14:22:37.577Z,97884.92
2019-05-29T14:25:07.523Z,97882.88
2019-05-29T14:27:35.960Z,97881.58
2019-05-29T14:30:08.455Z,97888.77
2019-05-29T14:32:37.519Z,97886.01
2019-05-29T14:35:07.769Z,97884.98
2019-05-29T14:37:37.049Z,97889.37
2019-05-29T14:40:07.757Z,97891.98
2019-05-29T14:42:36.350Z,97893.40
2019-05-29T14:45:08.520Z,97895.34
2019-05-29T14:47:36.923Z,97896.52
2019-05-29T14:50:06.827Z,97893.52
2019-05-29T14:52:35.203Z,97897.05
2019-05-29T14:55:04.724Z,97902.61
2019-05-29T14:57:33.127Z,97900.78
2019-05-29T15:00:06.572Z,97906.50
2019-05-29T15:02:31.763Z,97912.53
2019-05-29T15:05:00.150Z,97906.97
2019-05-29T15:07:28.529Z,97915.38
2019-05-29T15:09:56.914Z,97911.04
2019-05-29T15:12:25.310Z,97912.58
2019-05-29T15:14:53.687Z,97917.25
2019-05-29T15:17:22.076Z,97921.67
2019-05-29T15:19:50.483Z,97924.20
2019-05-29T15:22:18.878Z,97918.14
2019-05-29T15:25:01.513Z,97925.82
2019-05-29T15:27:17.378Z,97929.11
2019-05-29T15:29:45.765Z,97924.94
2019-05-29T15:32:14.610Z,97930.83
2019-05-29T15:34:43.006Z,97929.41
2019-05-29T15:37:13.679Z,97931.20
2019-05-29T15:39:41.513Z,97933.14
2019-05-29T15:42:10.892Z,97932.48
2019-05-29T15:44:39.265Z,97936.78
2019-05-29T15:47:08.758Z,97935.98
2019-05-29T15:49:37.243Z,97935.34
2019-05-29T15:52:06.960Z,97938.62
2019-05-29T15:54:35.412Z,97939.92
2019-05-29T15:57:03.791Z,97935.44
2019-05-29T15:59:32.178Z,97946.19
2019-05-29T16:02:00.568Z,97941.45
2019-05-29T16:04:29.056Z,97941.98
2019-05-29T16:06:57.459Z,97949.19
2019-05-29T16:09:25.874Z,97946.77
2019-05-29T16:11:54.273Z,97946.97
2019-05-29T16:14:22.655Z,97949.51
2019-05-29T16:16:51.044Z,97950.44
2019-05-29T16:19:19.424Z,97956.52
2019-05-29T16:21:47.810Z,97957.98
2019-05-29T16:24:16.803Z,97957.06
2019-05-29T16:26:45.230Z,97958.24
2019-05-29T16:29:15.999Z,97964.25
2019-05-29T16:31:43.993Z,97961.96
2019-05-29T16:34:12.435Z,97969.33
2019-05-29T16:36:40.825Z,97968.92
2019-05-29T16:39:09.386Z,97970.62
2019-05-29T16:41:37.941Z,97969.64
2019-05-29T16:44:06.503Z,97974.00
2019-05-29T16:46:34.888Z,97975.55
2019-05-29T16:49:03.283Z,97984.20
2019-05-29T16:51:31.732Z,97980.18
2019-05-29T16:54:00.134Z,97979.88
2019-05-29T16:56:28.565Z,97979.16
2019-05-29T16:58:56.968Z,97979.10
2019-05-29T17:01:25.371Z,97988.27
2019-05-29T17:03:53.762Z,97986.84
2019-05-29T17:06:22.498Z,97992.81
2019-05-29T17:08:51.088Z,97985.91
2019-05-29T17:11:20.374Z,97992.17
2019-05-29T17:13:48.792Z,97997.83
2019-05-29T17:16:18.460Z,97997.77
2019-05-29T17:18:47.092Z,98001.05
2019-05-29T17:21:16.508Z,97996.63
2019-05-29T17:23:44.882Z,97999.48
2019-05-29T17:26:14.560Z,98001.09
2019-05-29T17:28:43.085Z,98006.34
2019-05-29T17:31:11.515Z,98003.75
2019-05-29T17:33:39.912Z,98009.78
2019-05-29T17:36:08.407Z,98008.48
2019-05-29T17:38:36.741Z,98007.83
2019-05-29T17:41:05.311Z,98009.67
2019-05-29T17:43:33.707Z,98014.03
2019-05-29T17:46:02.117Z,98019.17
2019-05-29T17:48:30.513Z,98015.02
2019-05-29T17:50:58.926Z,98016.41
2019-05-29T17:53:27.423Z,98017.22
2019-05-29T17:55:55.817Z,98020.74
2019-05-29T17:58:25.021Z,98009.98
2019-05-29T18:00:54.479Z,98027.30
2019-05-29T18:03:22.879Z,98025.63
2019-05-29T18:05:51.284Z,98036.40
2019-05-29T18:08:20.711Z,98035.09
2019-05-29T18:10:49.202Z,98033.02
2019-05-29T18:13:17.588Z,98035.73
2019-05-29T18:15:46.029Z,98041.77
2019-05-29T18:18:14.417Z,98042.30
2019-05-29T18:20:42.822Z,98038.45
2019-05-29T18:23:11.207Z,98045.59
2019-05-29T18:25:39.649Z,97995.64
2019-05-29T18:28:08.051Z,98047.61
2019-05-29T18:30:36.519Z,98046.66
2019-05-29T18:33:05.050Z,98054.05
2019-05-29T18:35:33.468Z,98057.05
2019-05-29T18:38:01.890Z,98054.45
2019-05-29T18:40:30.299Z,98058.90
2019-05-29T18:42:58.701Z,98058.52
2019-05-29T18:45:27.965Z,98063.78
2019-05-29T18:47:57.248Z,98066.95
2019-05-29T18:50:25.734Z,98065.25
2019-05-29T18:52:54.107Z,98064.41
2019-05-29T18:55:22.861Z,98068.31
2019-05-29T18:57:51.292Z,98072.27
2019-05-29T19:00:23.326Z,98028.22
2019-05-29T19:02:51.798Z,98074.41
2019-05-29T19:05:21.423Z,98073.52
2019-05-29T19:07:49.861Z,98076.48
2019-05-29T19:10:19.707Z,98079.89
2019-05-29T19:12:48.097Z,98078.59
2019-05-29T19:15:17.765Z,98092.89
2019-05-29T19:17:46.166Z,98088.98
2019-05-29T19:20:15.160Z,98093.78
2019-05-29T19:22:43.546Z,98095.60
2019-05-29T19:25:12.162Z,98099.50
2019-05-29T19:27:42.250Z,98108.19
2019-05-29T19:30:11.497Z,98110.37
2019-05-29T19:32:39.878Z,98063.86
2019-05-29T19:35:09.226Z,98125.08
2019-05-29T19:37:37.604Z,98127.16
2019-05-29T19:40:06.736Z,98127.63
2019-05-29T19:42:35.124Z,98091.91
2019-05-29T19:45:05.646Z,98138.53
2019-05-29T19:47:34.929Z,98137.66
2019-05-29T19:50:04.672Z,98137.28
2019-05-29T19:52:33.329Z,98144.73
2019-05-29T19:55:01.798Z,98144.38
2019-05-29T19:57:46.526Z,98151.39
2019-05-29T20:00:00.358Z,98153.20
2019-05-29T20:02:30.473Z,98154.88
2019-05-29T20:04:58.828Z,98155.80
2019-05-29T20:07:27.224Z,98159.30
2019-05-29T20:09:55.608Z,98165.78
2019-05-29T20:12:23.995Z,98166.71
2019-05-29T20:14:52.379Z,98168.95
2019-05-29T20:17:20.768Z,98166.41
2019-05-29T20:19:49.150Z,98171.50
2019-05-29T20:22:17.538Z,98173.16
2019-05-29T20:24:45.927Z,98171.86
2019-05-29T20:27:14.306Z,98179.70
2019-05-29T20:29:42.761Z,98177.99
2019-05-29T20:32:11.151Z,98179.81
2019-05-29T20:34:40.470Z,98180.70
2019-05-29T20:37:08.862Z,98177.69
2019-05-29T20:39:38.448Z,98183.30
2019-05-29T20:42:06.943Z,98181.53
2019-05-29T20:44:41.288Z,98181.11
2019-05-29T20:47:09.673Z,98185.38
2019-05-29T20:49:38.120Z,98182.00
2019-05-29T20:52:06.537Z,98189.84
2019-05-29T20:54:35.595Z,98194.25
2019-05-29T20:57:05.689Z,98192.55
2019-05-29T20:59:34.092Z,98163.71
2019-05-29T21:02:02.494Z,98192.91
2019-05-29T21:04:32.917Z,98202.37
2019-05-29T21:07:01.016Z,98198.10
2019-05-29T21:09:29.428Z,98199.88
2019-05-29T21:11:57.776Z,98205.18
2019-05-29T21:14:26.174Z,98205.69
2019-05-29T21:16:54.554Z,98209.80
2019-05-29T21:19:22.944Z,98211.60
2019-05-29T21:21:51.324Z,98212.11
2019-05-29T21:24:20.601Z,98207.86
2019-05-29T21:26:48.984Z,98213.95
2019-05-29T21:29:17.369Z,98209.16
2019-05-29T21:31:45.836Z,98202.26
2019-05-29T21:34:14.232Z,98210.92
2019-05-29T21:36:42.690Z,98217.00
2019-05-29T21:39:11.143Z,98212.31
2019-05-29T21:41:40.416Z,98218.40
2019-05-29T21:44:08.786Z,98222.80
2019-05-29T21:46:37.185Z,98225.41
2019-05-29T21:49:05.665Z,98222.86
2019-05-29T21:51:34.045Z,98225.45
2019-05-29T21:54:02.440Z,98228.42
2019-05-29T21:56:30.826Z,98231.63
2019-05-29T21:59:03.900Z,98232.19
2019-05-29T22:01:29.451Z,98235.67
2019-05-29T22:03:57.903Z,98232.70
2019-05-29T22:06:26.423Z,98232.70
2019-05-29T22:08:54.876Z,98234.09
2019-05-29T22:11:23.259Z,98239.66
2019-05-29T22:13:52.364Z,98233.64
2019-05-29T22:16:20.705Z,98235.34
2019-05-29T22:18:49.157Z,98241.37
2019-05-29T22:21:17.544Z,98235.77
2019-05-29T22:23:45.926Z,98241.98
2019-05-29T22:26:14.307Z,98240.42
2019-05-29T22:28:42.701Z,98238.38
2019-05-29T22:31:11.154Z,98241.91
2019-05-29T22:33:39.602Z,98238.52
2019-05-29T22:36:07.975Z,98239.77
2019-05-29T22:38:36.372Z,98239.03
2019-05-29T22:41:04.816Z,98242.14
2019-05-29T22:43:33.220Z,98244.84
2019-05-29T22:46:01.882Z,98242.37
2019-05-29T22:48:30.254Z,98245.44
2019-05-29T22:50:59.884Z,98241.73
2019-05-29T22:53:28.303Z,98175.46
2019-05-29T22:55:57.819Z,98250.70
2019-05-29T22:58:26.246Z,98253.30
2019-05-29T23:00:55.874Z,98251.12
2019-05-29T23:03:24.381Z,98257.60
2019-05-29T23:05:53.995Z,98256.39
2019-05-29T23:08:22.626Z,98258.90
2019-05-29T23:10:52.183Z,98255.48
2019-05-29T23:13:20.581Z,98260.67
2019-05-29T23:15:48.963Z,98255.09
2019-05-29T23:18:17.341Z,98257.69
2019-05-29T23:20:45.732Z,98249.87
2019-05-29T23:23:14.191Z,98256.69
2019-05-29T23:25:42.581Z,98175.05
2019-05-29T23:28:11.027Z,98254.59
2019-05-29T23:30:39.415Z,98260.29
2019-05-29T23:33:07.793Z,98260.38
2019-05-29T23:35:36.182Z,98261.77
2019-05-29T23:38:04.564Z,98256.63
2019-05-29T23:40:32.954Z,98262.41
2019-05-29T23:43:01.606Z,98262.50
2019-05-29T23:45:30.116Z,98269.41
2019-05-29T23:47:59.624Z,98269.45
2019-05-29T23:50:28.066Z,98270.37
2019-05-29T23:52:57.839Z,98265.36
2019-05-29T23:55:26.320Z,98264.23
2019-05-29T23:57:55.665Z,98267.41
